sensor_id;sensor_type;location;lat;lon;timestamp;P1;durP1;ratioP1;P2;durP2;ratioP2
58898;SDS011;44680;48.342;7.856;2022-09-09T00:01:58;3.15;;;2.25;;
58898;SDS011;44680;48.342;7.856;2022-09-09T00:04:27;5.00;;;2.15;;
58898;SDS011;44680;48.342;7.856;2022-09-09T00:07:10;8.13;;;2.83;;
58898;SDS011;44680;48.342;7.856;2022-09-09T00:09:47;6.30;;;2.45;;
58898;SDS011;44680;48.342;7.856;2022-09-09T00:12:22;4.78;;;1.85;;
58898;SDS011;44680;48.342;7.856;2022-09-09T00:14:56;6.18;;;2.40;;
58898;SDS011;44680;48.342;7.856;2022-09-09T00:20:28;5.97;;;2.35;;
58898;SDS011;44680;48.342;7.856;2022-09-09T00:23:00;2.80;;;1.90;;
58898;SDS011;44680;48.342;7.856;2022-09-09T00:25:37;4.80;;;2.28;;
58898;SDS011;44680;48.342;7.856;2022-09-09T00:28:18;3.85;;;2.22;;
58898;SDS011;44680;48.342;7.856;2022-09-09T00:30:45;7.47;;;2.08;;
58898;SDS011;44680;48.342;7.856;2022-09-09T00:33:13;7.03;;;2.45;;
58898;SDS011;44680;48.342;7.856;2022-09-09T00:35:50;7.20;;;2.20;;
58898;SDS011;44680;48.342;7.856;2022-09-09T00:41:21;6.22;;;2.00;;
58898;SDS011;44680;48.342;7.856;2022-09-09T00:44:02;3.90;;;2.10;;
58898;SDS011;44680;48.342;7.856;2022-09-09T00:46:48;6.90;;;2.20;;
58898;SDS011;44680;48.342;7.856;2022-09-09T00:49:26;4.82;;;1.80;;
58898;SDS011;44680;48.342;7.856;2022-09-09T00:52:03;3.88;;;2.10;;
58898;SDS011;44680;48.342;7.856;2022-09-09T00:57:16;5.55;;;1.55;;
58898;SDS011;44680;48.342;7.856;2022-09-09T01:05:46;2.85;;;1.95;;
58898;SDS011;44680;48.342;7.856;2022-09-09T01:11:05;6.00;;;2.30;;
58898;SDS011;44680;48.342;7.856;2022-09-09T01:13:33;4.55;;;1.67;;
58898;SDS011;44680;48.342;7.856;2022-09-09T01:16:00;5.47;;;2.03;;
58898;SDS011;44680;48.342;7.856;2022-09-09T01:18:28;3.97;;;1.70;;
58898;SDS011;44680;48.342;7.856;2022-09-09T01:21:09;5.20;;;2.22;;
58898;SDS011;44680;48.342;7.856;2022-09-09T01:26:41;4.90;;;1.75;;
58898;SDS011;44680;48.342;7.856;2022-09-09T01:29:17;4.70;;;2.10;;
58898;SDS011;44680;48.342;7.856;2022-09-09T01:34:22;3.22;;;1.35;;
58898;SDS011;44680;48.342;7.856;2022-09-09T01:39:26;5.40;;;2.22;;
58898;SDS011;44680;48.342;7.856;2022-09-09T01:41:52;4.95;;;1.60;;
58898;SDS011;44680;48.342;7.856;2022-09-09T01:44:18;3.45;;;1.67;;
58898;SDS011;44680;48.342;7.856;2022-09-09T01:46:44;5.47;;;1.70;;
58898;SDS011;44680;48.342;7.856;2022-09-09T01:49:09;4.97;;;1.63;;
58898;SDS011;44680;48.342;7.856;2022-09-09T01:51:35;1.80;;;1.58;;
58898;SDS011;44680;48.342;7.856;2022-09-09T01:54:01;2.00;;;1.55;;
58898;SDS011;44680;48.342;7.856;2022-09-09T01:56:31;3.35;;;1.45;;
58898;SDS011;44680;48.342;7.856;2022-09-09T01:59:13;7.18;;;1.25;;
58898;SDS011;44680;48.342;7.856;2022-09-09T02:01:58;6.32;;;1.40;;
58898;SDS011;44680;48.342;7.856;2022-09-09T02:04:36;1.23;;;1.15;;
58898;SDS011;44680;48.342;7.856;2022-09-09T02:07:06;2.17;;;1.45;;
58898;SDS011;44680;48.342;7.856;2022-09-09T02:09:39;3.17;;;1.13;;
58898;SDS011;44680;48.342;7.856;2022-09-09T02:12:14;1.10;;;1.00;;
58898;SDS011;44680;48.342;7.856;2022-09-09T02:14:47;2.15;;;1.15;;
58898;SDS011;44680;48.342;7.856;2022-09-09T02:17:17;2.92;;;1.65;;
58898;SDS011;44680;48.342;7.856;2022-09-09T02:19:47;3.15;;;1.55;;
58898;SDS011;44680;48.342;7.856;2022-09-09T02:22:18;2.95;;;1.42;;
58898;SDS011;44680;48.342;7.856;2022-09-09T02:24:45;2.85;;;1.30;;
58898;SDS011;44680;48.342;7.856;2022-09-09T02:27:11;2.60;;;1.63;;
58898;SDS011;44680;48.342;7.856;2022-09-09T02:29:39;3.35;;;1.35;;
58898;SDS011;44680;48.342;7.856;2022-09-09T02:32:07;2.15;;;1.27;;
58898;SDS011;44680;48.342;7.856;2022-09-09T02:34:35;7.63;;;1.48;;
58898;SDS011;44680;48.342;7.856;2022-09-09T02:37:02;3.20;;;1.27;;
58898;SDS011;44680;48.342;7.856;2022-09-09T02:39:28;1.67;;;1.30;;
58898;SDS011;44680;48.342;7.856;2022-09-09T02:41:53;3.78;;;1.25;;
58898;SDS011;44680;48.342;7.856;2022-09-09T02:44:19;2.42;;;1.40;;
58898;SDS011;44680;48.342;7.856;2022-09-09T02:52:43;2.15;;;1.20;;
58898;SDS011;44680;48.342;7.856;2022-09-09T02:57:54;2.45;;;1.27;;
58898;SDS011;44680;48.342;7.856;2022-09-09T03:00:24;2.15;;;1.30;;
58898;SDS011;44680;48.342;7.856;2022-09-09T03:02:50;6.60;;;1.60;;
58898;SDS011;44680;48.342;7.856;2022-09-09T03:05:16;0.95;;;0.80;;
58898;SDS011;44680;48.342;7.856;2022-09-09T03:07:42;3.55;;;1.25;;
58898;SDS011;44680;48.342;7.856;2022-09-09T03:10:07;0.98;;;0.93;;
58898;SDS011;44680;48.342;7.856;2022-09-09T03:12:33;2.83;;;1.40;;
58898;SDS011;44680;48.342;7.856;2022-09-09T03:14:58;1.25;;;0.90;;
58898;SDS011;44680;48.342;7.856;2022-09-09T03:17:23;3.00;;;1.48;;
58898;SDS011;44680;48.342;7.856;2022-09-09T03:19:49;3.40;;;1.42;;
58898;SDS011;44680;48.342;7.856;2022-09-09T03:22:17;2.17;;;1.30;;
58898;SDS011;44680;48.342;7.856;2022-09-09T03:24:42;2.10;;;1.33;;
58898;SDS011;44680;48.342;7.856;2022-09-09T03:27:08;2.47;;;1.83;;
58898;SDS011;44680;48.342;7.856;2022-09-09T03:29:33;2.85;;;1.50;;
58898;SDS011;44680;48.342;7.856;2022-09-09T03:31:59;1.58;;;1.15;;
58898;SDS011;44680;48.342;7.856;2022-09-09T03:34:24;7.78;;;1.30;;
58898;SDS011;44680;48.342;7.856;2022-09-09T03:36:49;1.42;;;1.33;;
58898;SDS011;44680;48.342;7.856;2022-09-09T03:39:15;6.07;;;2.17;;
58898;SDS011;44680;48.342;7.856;2022-09-09T03:41:40;2.10;;;1.40;;
58898;SDS011;44680;48.342;7.856;2022-09-09T03:44:06;3.90;;;1.67;;
58898;SDS011;44680;48.342;7.856;2022-09-09T03:46:31;5.65;;;1.98;;
58898;SDS011;44680;48.342;7.856;2022-09-09T03:48:58;5.22;;;1.65;;
58898;SDS011;44680;48.342;7.856;2022-09-09T03:51:23;6.35;;;1.67;;
58898;SDS011;44680;48.342;7.856;2022-09-09T03:53:49;7.05;;;1.73;;
58898;SDS011;44680;48.342;7.856;2022-09-09T03:56:15;2.22;;;1.67;;
58898;SDS011;44680;48.342;7.856;2022-09-09T03:58:40;4.05;;;1.83;;
58898;SDS011;44680;48.342;7.856;2022-09-09T04:01:07;2.47;;;1.80;;
58898;SDS011;44680;48.342;7.856;2022-09-09T04:03:39;2.60;;;1.88;;
58898;SDS011;44680;48.342;7.856;2022-09-09T04:06:05;5.28;;;1.90;;
58898;SDS011;44680;48.342;7.856;2022-09-09T04:08:33;7.00;;;2.15;;
58898;SDS011;44680;48.342;7.856;2022-09-09T04:10:59;5.18;;;2.03;;
58898;SDS011;44680;48.342;7.856;2022-09-09T04:13:27;4.30;;;2.22;;
58898;SDS011;44680;48.342;7.856;2022-09-09T04:18:19;3.83;;;1.90;;
58898;SDS011;44680;48.342;7.856;2022-09-09T04:20:48;6.50;;;1.92;;
58898;SDS011;44680;48.342;7.856;2022-09-09T04:23:15;4.22;;;2.10;;
58898;SDS011;44680;48.342;7.856;2022-09-09T04:25:44;3.70;;;2.05;;
58898;SDS011;44680;48.342;7.856;2022-09-09T04:28:11;2.97;;;1.80;;
58898;SDS011;44680;48.342;7.856;2022-09-09T04:30:37;5.68;;;2.00;;
58898;SDS011;44680;48.342;7.856;2022-09-09T04:33:04;4.07;;;1.95;;
58898;SDS011;44680;48.342;7.856;2022-09-09T04:35:30;5.65;;;2.35;;
58898;SDS011;44680;48.342;7.856;2022-09-09T04:37:55;5.35;;;2.08;;
58898;SDS011;44680;48.342;7.856;2022-09-09T04:40:21;2.90;;;1.98;;
58898;SDS011;44680;48.342;7.856;2022-09-09T04:42:47;3.42;;;2.05;;
58898;SDS011;44680;48.342;7.856;2022-09-09T04:45:15;7.95;;;2.50;;
58898;SDS011;44680;48.342;7.856;2022-09-09T04:47:40;7.45;;;2.30;;
58898;SDS011;44680;48.342;7.856;2022-09-09T04:50:06;5.40;;;2.25;;
58898;SDS011;44680;48.342;7.856;2022-09-09T04:52:33;3.63;;;2.38;;
58898;SDS011;44680;48.342;7.856;2022-09-09T04:55:02;5.43;;;2.30;;
58898;SDS011;44680;48.342;7.856;2022-09-09T04:57:28;8.02;;;2.50;;
58898;SDS011;44680;48.342;7.856;2022-09-09T04:59:54;4.10;;;2.60;;
58898;SDS011;44680;48.342;7.856;2022-09-09T05:02:20;8.40;;;2.80;;
58898;SDS011;44680;48.342;7.856;2022-09-09T05:04:45;5.05;;;2.67;;
58898;SDS011;44680;48.342;7.856;2022-09-09T05:07:10;4.15;;;2.80;;
58898;SDS011;44680;48.342;7.856;2022-09-09T05:09:36;7.82;;;2.83;;
58898;SDS011;44680;48.342;7.856;2022-09-09T05:12:01;8.15;;;3.22;;
58898;SDS011;44680;48.342;7.856;2022-09-09T05:14:27;6.82;;;2.80;;
58898;SDS011;44680;48.342;7.856;2022-09-09T05:16:53;6.13;;;3.50;;
58898;SDS011;44680;48.342;7.856;2022-09-09T05:19:18;6.93;;;4.28;;
58898;SDS011;44680;48.342;7.856;2022-09-09T05:21:44;12.52;;;4.55;;
58898;SDS011;44680;48.342;7.856;2022-09-09T05:24:10;6.22;;;3.22;;
58898;SDS011;44680;48.342;7.856;2022-09-09T05:26:35;8.82;;;3.97;;
58898;SDS011;44680;48.342;7.856;2022-09-09T05:29:01;5.40;;;3.30;;
58898;SDS011;44680;48.342;7.856;2022-09-09T05:31:26;7.88;;;2.97;;
58898;SDS011;44680;48.342;7.856;2022-09-09T05:33:53;5.28;;;2.60;;
58898;SDS011;44680;48.342;7.856;2022-09-09T05:36:19;5.05;;;2.35;;
58898;SDS011;44680;48.342;7.856;2022-09-09T05:38:45;5.70;;;2.10;;
58898;SDS011;44680;48.342;7.856;2022-09-09T05:41:11;5.03;;;2.40;;
58898;SDS011;44680;48.342;7.856;2022-09-09T05:43:37;4.53;;;2.40;;
58898;SDS011;44680;48.342;7.856;2022-09-09T05:48:33;11.43;;;2.78;;
58898;SDS011;44680;48.342;7.856;2022-09-09T05:50:59;3.10;;;2.05;;
58898;SDS011;44680;48.342;7.856;2022-09-09T05:53:26;7.07;;;2.33;;
58898;SDS011;44680;48.342;7.856;2022-09-09T05:55:59;2.95;;;2.25;;
58898;SDS011;44680;48.342;7.856;2022-09-09T05:58:28;5.45;;;2.22;;
58898;SDS011;44680;48.342;7.856;2022-09-09T06:01:22;4.95;;;2.38;;
58898;SDS011;44680;48.342;7.856;2022-09-09T06:03:46;4.30;;;2.08;;
58898;SDS011;44680;48.342;7.856;2022-09-09T06:06:16;7.80;;;2.50;;
58898;SDS011;44680;48.342;7.856;2022-09-09T06:08:45;6.43;;;2.40;;
58898;SDS011;44680;48.342;7.856;2022-09-09T06:11:13;6.32;;;2.40;;
58898;SDS011;44680;48.342;7.856;2022-09-09T06:13:40;5.97;;;2.20;;
58898;SDS011;44680;48.342;7.856;2022-09-09T06:16:08;6.32;;;2.22;;
58898;SDS011;44680;48.342;7.856;2022-09-09T06:18:34;4.95;;;2.28;;
58898;SDS011;44680;48.342;7.856;2022-09-09T06:21:00;6.28;;;2.03;;
58898;SDS011;44680;48.342;7.856;2022-09-09T06:23:27;3.13;;;2.55;;
58898;SDS011;44680;48.342;7.856;2022-09-09T06:26:13;3.33;;;2.15;;
58898;SDS011;44680;48.342;7.856;2022-09-09T06:28:40;8.13;;;2.20;;
58898;SDS011;44680;48.342;7.856;2022-09-09T06:31:08;3.22;;;2.08;;
58898;SDS011;44680;48.342;7.856;2022-09-09T06:33:35;5.30;;;1.98;;
58898;SDS011;44680;48.342;7.856;2022-09-09T06:36:04;6.50;;;2.08;;
58898;SDS011;44680;48.342;7.856;2022-09-09T06:38:30;5.97;;;2.33;;
58898;SDS011;44680;48.342;7.856;2022-09-09T06:40:55;9.60;;;2.53;;
58898;SDS011;44680;48.342;7.856;2022-09-09T06:43:23;10.95;;;2.03;;
58898;SDS011;44680;48.342;7.856;2022-09-09T06:48:44;5.88;;;2.00;;
58898;SDS011;44680;48.342;7.856;2022-09-09T06:51:10;3.00;;;2.03;;
58898;SDS011;44680;48.342;7.856;2022-09-09T06:53:39;6.35;;;2.38;;
58898;SDS011;44680;48.342;7.856;2022-09-09T06:59:06;3.22;;;2.00;;
58898;SDS011;44680;48.342;7.856;2022-09-09T07:01:35;5.40;;;2.15;;
58898;SDS011;44680;48.342;7.856;2022-09-09T07:04:01;4.25;;;2.20;;
58898;SDS011;44680;48.342;7.856;2022-09-09T07:06:30;6.28;;;1.80;;
58898;SDS011;44680;48.342;7.856;2022-09-09T07:08:57;5.50;;;2.33;;
58898;SDS011;44680;48.342;7.856;2022-09-09T07:11:29;8.93;;;2.00;;
58898;SDS011;44680;48.342;7.856;2022-09-09T07:13:56;6.15;;;1.90;;
58898;SDS011;44680;48.342;7.856;2022-09-09T07:16:23;6.32;;;2.10;;
58898;SDS011;44680;48.342;7.856;2022-09-09T07:18:49;5.22;;;2.05;;
58898;SDS011;44680;48.342;7.856;2022-09-09T07:21:15;3.92;;;1.92;;
58898;SDS011;44680;48.342;7.856;2022-09-09T07:23:41;4.68;;;2.10;;
58898;SDS011;44680;48.342;7.856;2022-09-09T07:26:10;5.68;;;2.13;;
58898;SDS011;44680;48.342;7.856;2022-09-09T07:28:37;6.78;;;2.10;;
58898;SDS011;44680;48.342;7.856;2022-09-09T07:31:02;7.85;;;2.50;;
58898;SDS011;44680;48.342;7.856;2022-09-09T07:33:29;4.47;;;2.13;;
58898;SDS011;44680;48.342;7.856;2022-09-09T07:36:02;6.85;;;2.45;;
58898;SDS011;44680;48.342;7.856;2022-09-09T07:38:29;6.25;;;2.03;;
58898;SDS011;44680;48.342;7.856;2022-09-09T07:41:02;5.68;;;2.35;;
58898;SDS011;44680;48.342;7.856;2022-09-09T07:43:41;4.55;;;1.65;;
58898;SDS011;44680;48.342;7.856;2022-09-09T07:46:07;7.88;;;2.05;;
58898;SDS011;44680;48.342;7.856;2022-09-09T07:48:34;7.63;;;2.45;;
58898;SDS011;44680;48.342;7.856;2022-09-09T07:51:06;5.35;;;1.80;;
58898;SDS011;44680;48.342;7.856;2022-09-09T07:53:35;5.07;;;1.95;;
58898;SDS011;44680;48.342;7.856;2022-09-09T07:56:08;8.50;;;2.05;;
58898;SDS011;44680;48.342;7.856;2022-09-09T07:58:35;5.47;;;2.00;;
58898;SDS011;44680;48.342;7.856;2022-09-09T08:01:12;6.20;;;1.95;;
58898;SDS011;44680;48.342;7.856;2022-09-09T08:03:39;4.80;;;1.90;;
58898;SDS011;44680;48.342;7.856;2022-09-09T08:06:05;5.47;;;2.05;;
58898;SDS011;44680;48.342;7.856;2022-09-09T08:08:32;4.80;;;1.80;;
58898;SDS011;44680;48.342;7.856;2022-09-09T08:11:06;8.00;;;2.20;;
58898;SDS011;44680;48.342;7.856;2022-09-09T08:13:34;6.40;;;2.25;;
58898;SDS011;44680;48.342;7.856;2022-09-09T08:16:08;4.10;;;1.67;;
58898;SDS011;44680;48.342;7.856;2022-09-09T08:18:40;10.25;;;2.60;;
58898;SDS011;44680;48.342;7.856;2022-09-09T08:21:07;4.80;;;2.15;;
58898;SDS011;44680;48.342;7.856;2022-09-09T08:23:36;7.47;;;2.65;;
58898;SDS011;44680;48.342;7.856;2022-09-09T08:26:13;5.47;;;2.03;;
58898;SDS011;44680;48.342;7.856;2022-09-09T08:28:39;4.95;;;1.60;;
58898;SDS011;44680;48.342;7.856;2022-09-09T08:31:06;5.13;;;2.13;;
58898;SDS011;44680;48.342;7.856;2022-09-09T08:33:37;8.90;;;2.03;;
58898;SDS011;44680;48.342;7.856;2022-09-09T08:36:03;8.38;;;1.63;;
58898;SDS011;44680;48.342;7.856;2022-09-09T08:38:29;3.70;;;1.88;;
58898;SDS011;44680;48.342;7.856;2022-09-09T08:40:57;7.88;;;1.90;;
58898;SDS011;44680;48.342;7.856;2022-09-09T08:43:29;3.38;;;1.90;;
58898;SDS011;44680;48.342;7.856;2022-09-09T08:46:09;9.85;;;2.13;;
58898;SDS011;44680;48.342;7.856;2022-09-09T08:48:56;3.60;;;1.35;;
58898;SDS011;44680;48.342;7.856;2022-09-09T08:51:28;3.17;;;1.77;;
58898;SDS011;44680;48.342;7.856;2022-09-09T08:53:55;4.25;;;1.92;;
58898;SDS011;44680;48.342;7.856;2022-09-09T08:56:23;8.15;;;2.08;;
58898;SDS011;44680;48.342;7.856;2022-09-09T08:58:50;8.57;;;1.88;;
58898;SDS011;44680;48.342;7.856;2022-09-09T09:11:48;7.15;;;1.75;;
58898;SDS011;44680;48.342;7.856;2022-09-09T09:14:22;6.07;;;2.20;;
58898;SDS011;44680;48.342;7.856;2022-09-09T09:17:05;3.43;;;1.63;;
58898;SDS011;44680;48.342;7.856;2022-09-09T09:19:32;7.65;;;2.10;;
58898;SDS011;44680;48.342;7.856;2022-09-09T09:22:18;5.30;;;2.30;;
58898;SDS011;44680;48.342;7.856;2022-09-09T09:28:07;7.85;;;2.45;;
58898;SDS011;44680;48.342;7.856;2022-09-09T09:30:42;10.90;;;2.10;;
58898;SDS011;44680;48.342;7.856;2022-09-09T09:33:20;4.53;;;1.60;;
58898;SDS011;44680;48.342;7.856;2022-09-09T09:35:48;6.80;;;1.77;;
58898;SDS011;44680;48.342;7.856;2022-09-09T09:38:16;5.68;;;1.80;;
58898;SDS011;44680;48.342;7.856;2022-09-09T09:40:50;6.15;;;1.60;;
58898;SDS011;44680;48.342;7.856;2022-09-09T09:46:03;5.60;;;1.60;;
58898;SDS011;44680;48.342;7.856;2022-09-09T09:48:29;4.05;;;1.90;;
58898;SDS011;44680;48.342;7.856;2022-09-09T09:50:56;7.50;;;1.92;;
58898;SDS011;44680;48.342;7.856;2022-09-09T09:53:32;7.10;;;1.92;;
58898;SDS011;44680;48.342;7.856;2022-09-09T09:58:30;11.07;;;3.85;;
58898;SDS011;44680;48.342;7.856;2022-09-09T10:00:58;13.88;;;6.65;;
58898;SDS011;44680;48.342;7.856;2022-09-09T10:03:26;15.68;;;5.45;;
58898;SDS011;44680;48.342;7.856;2022-09-09T10:05:55;13.15;;;4.55;;
58898;SDS011;44680;48.342;7.856;2022-09-09T10:08:22;10.63;;;4.15;;
58898;SDS011;44680;48.342;7.856;2022-09-09T10:11:12;7.13;;;3.75;;
58898;SDS011;44680;48.342;7.856;2022-09-09T10:13:51;10.85;;;4.10;;
58898;SDS011;44680;48.342;7.856;2022-09-09T10:16:30;6.40;;;3.55;;
58898;SDS011;44680;48.342;7.856;2022-09-09T10:27:05;13.60;;;4.53;;
58898;SDS011;44680;48.342;7.856;2022-09-09T10:43:22;3.72;;;2.15;;
58898;SDS011;44680;48.342;7.856;2022-09-09T10:46:13;7.72;;;3.40;;
58898;SDS011;44680;48.342;7.856;2022-09-09T10:55:12;2.38;;;1.70;;
58898;SDS011;44680;48.342;7.856;2022-09-09T10:57:40;5.60;;;1.83;;
58898;SDS011;44680;48.342;7.856;2022-09-09T11:03:01;5.43;;;1.90;;
58898;SDS011;44680;48.342;7.856;2022-09-09T11:05:36;4.28;;;1.75;;
58898;SDS011;44680;48.342;7.856;2022-09-09T11:08:09;11.05;;;1.90;;
58898;SDS011;44680;48.342;7.856;2022-09-09T11:13:59;6.25;;;2.00;;
58898;SDS011;44680;48.342;7.856;2022-09-09T11:19:00;4.72;;;1.85;;
58898;SDS011;44680;48.342;7.856;2022-09-09T11:21:31;7.43;;;2.28;;
58898;SDS011;44680;48.342;7.856;2022-09-09T11:24:02;4.80;;;1.58;;
58898;SDS011;44680;48.342;7.856;2022-09-09T11:26:32;8.43;;;1.90;;
58898;SDS011;44680;48.342;7.856;2022-09-09T11:40:08;5.97;;;1.75;;
58898;SDS011;44680;48.342;7.856;2022-09-09T11:42:34;3.97;;;1.98;;
58898;SDS011;44680;48.342;7.856;2022-09-09T11:45:10;7.93;;;1.88;;
58898;SDS011;44680;48.342;7.856;2022-09-09T11:47:50;5.30;;;1.80;;
58898;SDS011;44680;48.342;7.856;2022-09-09T11:52:44;5.95;;;2.03;;
58898;SDS011;44680;48.342;7.856;2022-09-09T11:55:25;9.32;;;2.15;;
58898;SDS011;44680;48.342;7.856;2022-09-09T11:57:58;6.60;;;1.40;;
58898;SDS011;44680;48.342;7.856;2022-09-09T12:00:33;5.82;;;1.52;;
58898;SDS011;44680;48.342;7.856;2022-09-09T12:03:04;6.65;;;2.10;;
58898;SDS011;44680;48.342;7.856;2022-09-09T12:05:37;7.65;;;1.80;;
58898;SDS011;44680;48.342;7.856;2022-09-09T12:08:05;7.00;;;1.70;;
58898;SDS011;44680;48.342;7.856;2022-09-09T12:10:35;5.07;;;1.25;;
58898;SDS011;44680;48.342;7.856;2022-09-09T12:15:49;9.10;;;1.67;;
58898;SDS011;44680;48.342;7.856;2022-09-09T12:18:35;5.88;;;1.35;;
58898;SDS011;44680;48.342;7.856;2022-09-09T12:23:52;4.82;;;1.20;;
58898;SDS011;44680;48.342;7.856;2022-09-09T12:34:30;4.57;;;1.17;;
58898;SDS011;44680;48.342;7.856;2022-09-09T12:37:47;5.27;;;1.30;;
58898;SDS011;44680;48.342;7.856;2022-09-09T12:39:57;1.85;;;0.80;;
58898;SDS011;44680;48.342;7.856;2022-09-09T12:42:50;0.80;;;0.80;;
58898;SDS011;44680;48.342;7.856;2022-09-09T12:45:19;2.42;;;1.00;;
58898;SDS011;44680;48.342;7.856;2022-09-09T12:47:53;1.88;;;1.10;;
58898;SDS011;44680;48.342;7.856;2022-09-09T12:50:27;4.18;;;1.15;;
58898;SDS011;44680;48.342;7.856;2022-09-09T12:52:57;1.55;;;0.80;;
58898;SDS011;44680;48.342;7.856;2022-09-09T12:55:24;4.68;;;1.30;;
58898;SDS011;44680;48.342;7.856;2022-09-09T12:57:55;1.73;;;0.80;;
58898;SDS011;44680;48.342;7.856;2022-09-09T13:00:22;4.13;;;1.55;;
58898;SDS011;44680;48.342;7.856;2022-09-09T13:02:52;2.30;;;1.20;;
58898;SDS011;44680;48.342;7.856;2022-09-09T13:05:25;4.85;;;1.45;;
58898;SDS011;44680;48.342;7.856;2022-09-09T13:08:02;2.08;;;1.15;;
58898;SDS011;44680;48.342;7.856;2022-09-09T13:10:29;2.17;;;1.17;;
58898;SDS011;44680;48.342;7.856;2022-09-09T13:12:59;5.95;;;1.35;;
58898;SDS011;44680;48.342;7.856;2022-09-09T13:15:26;5.88;;;1.30;;
58898;SDS011;44680;48.342;7.856;2022-09-09T13:17:56;2.42;;;1.02;;
58898;SDS011;44680;48.342;7.856;2022-09-09T13:20:23;4.28;;;1.23;;
58898;SDS011;44680;48.342;7.856;2022-09-09T13:22:49;6.63;;;1.20;;
58898;SDS011;44680;48.342;7.856;2022-09-09T13:28:36;4.30;;;1.40;;
58898;SDS011;44680;48.342;7.856;2022-09-09T13:30:54;6.53;;;1.73;;
58898;SDS011;44680;48.342;7.856;2022-09-09T13:33:24;3.67;;;1.65;;
58898;SDS011;44680;48.342;7.856;2022-09-09T13:35:56;8.00;;;1.42;;
58898;SDS011;44680;48.342;7.856;2022-09-09T13:38:22;4.40;;;1.20;;
58898;SDS011;44680;48.342;7.856;2022-09-09T13:41:00;3.95;;;1.35;;
58898;SDS011;44680;48.342;7.856;2022-09-09T13:43:30;4.28;;;1.58;;
58898;SDS011;44680;48.342;7.856;2022-09-09T13:45:57;5.65;;;1.65;;
58898;SDS011;44680;48.342;7.856;2022-09-09T13:48:24;8.68;;;2.33;;
58898;SDS011;44680;48.342;7.856;2022-09-09T13:50:54;5.00;;;1.52;;
58898;SDS011;44680;48.342;7.856;2022-09-09T13:53:20;6.35;;;1.85;;
58898;SDS011;44680;48.342;7.856;2022-09-09T13:55:45;5.80;;;1.85;;
58898;SDS011;44680;48.342;7.856;2022-09-09T13:58:14;2.65;;;1.30;;
58898;SDS011;44680;48.342;7.856;2022-09-09T14:00:40;2.88;;;1.50;;
58898;SDS011;44680;48.342;7.856;2022-09-09T14:03:06;7.70;;;1.70;;
58898;SDS011;44680;48.342;7.856;2022-09-09T14:05:32;5.75;;;1.38;;
58898;SDS011;44680;48.342;7.856;2022-09-09T14:07:58;2.78;;;1.50;;
58898;SDS011;44680;48.342;7.856;2022-09-09T14:10:25;4.22;;;1.58;;
58898;SDS011;44680;48.342;7.856;2022-09-09T14:12:50;2.90;;;1.23;;
58898;SDS011;44680;48.342;7.856;2022-09-09T14:15:16;8.80;;;1.50;;
58898;SDS011;44680;48.342;7.856;2022-09-09T14:17:41;4.78;;;1.40;;
58898;SDS011;44680;48.342;7.856;2022-09-09T14:20:07;3.30;;;0.98;;
58898;SDS011;44680;48.342;7.856;2022-09-09T14:22:34;3.67;;;0.70;;
58898;SDS011;44680;48.342;7.856;2022-09-09T14:25:00;2.17;;;1.08;;
58898;SDS011;44680;48.342;7.856;2022-09-09T14:27:25;3.50;;;1.05;;
58898;SDS011;44680;48.342;7.856;2022-09-09T14:29:51;2.83;;;0.88;;
58898;SDS011;44680;48.342;7.856;2022-09-09T14:32:17;4.13;;;1.17;;
58898;SDS011;44680;48.342;7.856;2022-09-09T14:34:42;2.92;;;1.00;;
58898;SDS011;44680;48.342;7.856;2022-09-09T14:37:08;2.13;;;0.90;;
58898;SDS011;44680;48.342;7.856;2022-09-09T14:39:33;1.27;;;0.90;;
58898;SDS011;44680;48.342;7.856;2022-09-09T14:41:58;2.50;;;0.80;;
58898;SDS011;44680;48.342;7.856;2022-09-09T14:44:24;4.07;;;1.15;;
58898;SDS011;44680;48.342;7.856;2022-09-09T14:46:49;4.82;;;0.98;;
58898;SDS011;44680;48.342;7.856;2022-09-09T14:49:19;1.23;;;0.85;;
58898;SDS011;44680;48.342;7.856;2022-09-09T14:51:44;6.25;;;0.90;;
58898;SDS011;44680;48.342;7.856;2022-09-09T14:54:09;5.72;;;1.10;;
58898;SDS011;44680;48.342;7.856;2022-09-09T14:56:35;4.15;;;1.45;;
58898;SDS011;44680;48.342;7.856;2022-09-09T14:59:01;2.85;;;1.20;;
58898;SDS011;44680;48.342;7.856;2022-09-09T15:01:27;3.20;;;1.48;;
58898;SDS011;44680;48.342;7.856;2022-09-09T15:03:58;2.83;;;1.20;;
58898;SDS011;44680;48.342;7.856;2022-09-09T15:06:25;3.97;;;1.13;;
58898;SDS011;44680;48.342;7.856;2022-09-09T15:08:52;3.22;;;1.30;;
58898;SDS011;44680;48.342;7.856;2022-09-09T15:11:18;2.38;;;0.98;;
58898;SDS011;44680;48.342;7.856;2022-09-09T15:13:45;3.13;;;1.15;;
58898;SDS011;44680;48.342;7.856;2022-09-09T15:16:11;1.52;;;0.90;;
58898;SDS011;44680;48.342;7.856;2022-09-09T15:18:41;0.90;;;0.80;;
58898;SDS011;44680;48.342;7.856;2022-09-09T15:21:10;1.85;;;0.85;;
58898;SDS011;44680;48.342;7.856;2022-09-09T15:23:40;2.65;;;0.90;;
58898;SDS011;44680;48.342;7.856;2022-09-09T15:26:05;3.67;;;0.88;;
58898;SDS011;44680;48.342;7.856;2022-09-09T15:28:35;0.85;;;0.70;;
58898;SDS011;44680;48.342;7.856;2022-09-09T15:31:06;3.58;;;0.88;;
58898;SDS011;44680;48.342;7.856;2022-09-09T15:33:34;1.02;;;0.85;;
58898;SDS011;44680;48.342;7.856;2022-09-09T15:36:11;2.88;;;0.70;;
58898;SDS011;44680;48.342;7.856;2022-09-09T15:38:37;2.67;;;1.10;;
58898;SDS011;44680;48.342;7.856;2022-09-09T15:41:03;2.63;;;0.80;;
58898;SDS011;44680;48.342;7.856;2022-09-09T15:43:28;0.80;;;0.73;;
58898;SDS011;44680;48.342;7.856;2022-09-09T15:45:54;3.17;;;1.35;;
58898;SDS011;44680;48.342;7.856;2022-09-09T15:48:29;1.75;;;0.82;;
58898;SDS011;44680;48.342;7.856;2022-09-09T15:51:03;3.70;;;1.00;;
58898;SDS011;44680;48.342;7.856;2022-09-09T15:53:29;3.28;;;1.08;;
58898;SDS011;44680;48.342;7.856;2022-09-09T15:55:57;1.35;;;1.10;;
58898;SDS011;44680;48.342;7.856;2022-09-09T15:58:23;4.47;;;1.00;;
58898;SDS011;44680;48.342;7.856;2022-09-09T16:00:48;2.65;;;1.05;;
58898;SDS011;44680;48.342;7.856;2022-09-09T16:03:13;4.53;;;1.52;;
58898;SDS011;44680;48.342;7.856;2022-09-09T16:05:39;4.22;;;1.15;;
58898;SDS011;44680;48.342;7.856;2022-09-09T16:08:05;4.63;;;1.35;;
58898;SDS011;44680;48.342;7.856;2022-09-09T16:10:30;2.83;;;1.38;;
58898;SDS011;44680;48.342;7.856;2022-09-09T16:12:55;1.77;;;1.08;;
58898;SDS011;44680;48.342;7.856;2022-09-09T16:15:21;3.58;;;1.08;;
58898;SDS011;44680;48.342;7.856;2022-09-09T16:17:48;4.53;;;1.10;;
58898;SDS011;44680;48.342;7.856;2022-09-09T16:20:14;3.42;;;1.45;;
58898;SDS011;44680;48.342;7.856;2022-09-09T16:22:39;1.55;;;0.90;;
58898;SDS011;44680;48.342;7.856;2022-09-09T16:25:05;2.28;;;0.82;;
58898;SDS011;44680;48.342;7.856;2022-09-09T16:27:30;2.05;;;1.20;;
58898;SDS011;44680;48.342;7.856;2022-09-09T16:29:56;7.30;;;1.40;;
58898;SDS011;44680;48.342;7.856;2022-09-09T16:32:21;4.53;;;1.13;;
58898;SDS011;44680;48.342;7.856;2022-09-09T16:34:47;7.47;;;1.60;;
58898;SDS011;44680;48.342;7.856;2022-09-09T16:37:12;4.07;;;1.17;;
58898;SDS011;44680;48.342;7.856;2022-09-09T16:39:37;2.83;;;1.05;;
58898;SDS011;44680;48.342;7.856;2022-09-09T16:42:03;1.90;;;1.23;;
58898;SDS011;44680;48.342;7.856;2022-09-09T16:44:29;8.50;;;1.23;;
58898;SDS011;44680;48.342;7.856;2022-09-09T16:46:55;6.95;;;1.42;;
58898;SDS011;44680;48.342;7.856;2022-09-09T16:49:21;2.63;;;1.00;;
58898;SDS011;44680;48.342;7.856;2022-09-09T16:51:47;3.15;;;1.00;;
58898;SDS011;44680;48.342;7.856;2022-09-09T16:54:14;3.47;;;0.70;;
58898;SDS011;44680;48.342;7.856;2022-09-09T16:56:42;2.08;;;1.10;;
58898;SDS011;44680;48.342;7.856;2022-09-09T16:59:12;2.60;;;1.05;;
58898;SDS011;44680;48.342;7.856;2022-09-09T17:01:40;4.15;;;1.25;;
58898;SDS011;44680;48.342;7.856;2022-09-09T17:04:10;9.52;;;4.15;;
58898;SDS011;44680;48.342;7.856;2022-09-09T17:06:45;4.40;;;1.50;;
58898;SDS011;44680;48.342;7.856;2022-09-09T17:09:11;3.80;;;2.40;;
58898;SDS011;44680;48.342;7.856;2022-09-09T17:11:38;16.67;;;6.53;;